sensor_id;sensor_type;location;lat;lon;timestamp;temperature;humidity
43627;DHT22;29217;52.586;13.442;2024-01-07T00:00:34;-1.30;99.90
43627;DHT22;29217;52.586;13.442;2024-01-07T00:03:00;-1.30;99.90
43627;DHT22;29217;52.586;13.442;2024-01-07T00:05:26;-1.30;99.90
43627;DHT22;29217;52.586;13.442;2024-01-07T00:07:51;-1.40;99.90
43627;DHT22;29217;52.586;13.442;2024-01-07T00:10:17;-1.40;99.90
43627;DHT22;29217;52.586;13.442;2024-01-07T00:12:43;-1.40;99.90
43627;DHT22;29217;52.586;13.442;2024-01-07T00:15:09;-1.40;99.90
43627;DHT22;29217;52.586;13.442;2024-01-07T00:17:35;-1.40;99.90
43627;DHT22;29217;52.586;13.442;2024-01-07T00:20:00;-1.40;99.90
43627;DHT22;29217;52.586;13.442;2024-01-07T00:22:26;-1.40;99.90
43627;DHT22;29217;52.586;13.442;2024-01-07T00:24:52;-1.50;99.90
43627;DHT22;29217;52.586;13.442;2024-01-07T00:27:17;-1.40;99.90
43627;DHT22;29217;52.586;13.442;2024-01-07T00:29:43;-1.50;99.90
43627;DHT22;29217;52.586;13.442;2024-01-07T00:32:08;-1.50;99.90
43627;DHT22;29217;52.586;13.442;2024-01-07T00:34:34;-1.40;99.90
43627;DHT22;29217;52.586;13.442;2024-01-07T00:36:59;-1.50;99.90
43627;DHT22;29217;52.586;13.442;2024-01-07T00:39:25;-1.50;99.90
43627;DHT22;29217;52.586;13.442;2024-01-07T00:41:51;-1.50;99.90
43627;DHT22;29217;52.586;13.442;2024-01-07T00:44:16;-1.50;99.90
43627;DHT22;29217;52.586;13.442;2024-01-07T00:46:42;-1.60;99.90
43627;DHT22;29217;52.586;13.442;2024-01-07T00:49:07;-1.60;99.90
43627;DHT22;29217;52.586;13.442;2024-01-07T00:51:33;-1.60;99.90
43627;DHT22;29217;52.586;13.442;2024-01-07T00:53:58;-1.60;99.90
43627;DHT22;29217;52.586;13.442;2024-01-07T00:56:27;-1.60;99.90
43627;DHT22;29217;52.586;13.442;2024-01-07T00:58:53;-1.60;99.90
43627;DHT22;29217;52.586;13.442;2024-01-07T01:01:19;-1.70;99.90
43627;DHT22;29217;52.586;13.442;2024-01-07T01:03:44;-1.60;99.90
43627;DHT22;29217;52.586;13.442;2024-01-07T01:06:10;-1.70;99.90
43627;DHT22;29217;52.586;13.442;2024-01-07T01:08:35;-1.70;99.90
43627;DHT22;29217;52.586;13.442;2024-01-07T01:11:01;-1.70;99.90
43627;DHT22;29217;52.586;13.442;2024-01-07T01:13:26;-1.70;99.90
43627;DHT22;29217;52.586;13.442;2024-01-07T01:15:52;-1.80;99.90
43627;DHT22;29217;52.586;13.442;2024-01-07T01:18:17;-1.80;99.90
43627;DHT22;29217;52.586;13.442;2024-01-07T01:20:43;-1.80;99.90
43627;DHT22;29217;52.586;13.442;2024-01-07T01:23:09;-1.80;99.90
43627;DHT22;29217;52.586;13.442;2024-01-07T01:25:34;-1.90;99.90
43627;DHT22;29217;52.586;13.442;2024-01-07T01:28:01;-2.00;99.90
43627;DHT22;29217;52.586;13.442;2024-01-07T01:30:26;-2.00;99.90
43627;DHT22;29217;52.586;13.442;2024-01-07T01:32:56;-2.00;99.90
43627;DHT22;29217;52.586;13.442;2024-01-07T01:35:21;-2.00;99.90
43627;DHT22;29217;52.586;13.442;2024-01-07T01:37:47;-2.10;99.90
43627;DHT22;29217;52.586;13.442;2024-01-07T01:40:12;-2.10;99.90
43627;DHT22;29217;52.586;13.442;2024-01-07T01:42:38;-2.10;99.90
43627;DHT22;29217;52.586;13.442;2024-01-07T01:45:04;-2.20;99.90
43627;DHT22;29217;52.586;13.442;2024-01-07T01:47:30;-2.20;99.90
43627;DHT22;29217;52.586;13.442;2024-01-07T01:49:56;-2.20;99.90
43627;DHT22;29217;52.586;13.442;2024-01-07T01:52:23;-2.20;99.90
43627;DHT22;29217;52.586;13.442;2024-01-07T01:54:49;-2.30;99.90
43627;DHT22;29217;52.586;13.442;2024-01-07T01:57:19;-2.30;99.90
43627;DHT22;29217;52.586;13.442;2024-01-07T01:59:46;-2.30;99.90
43627;DHT22;29217;52.586;13.442;2024-01-07T02:02:11;-2.20;99.90
43627;DHT22;29217;52.586;13.442;2024-01-07T02:04:38;-2.30;99.90
43627;DHT22;29217;52.586;13.442;2024-01-07T02:07:04;-2.30;99.90
43627;DHT22;29217;52.586;13.442;2024-01-07T02:09:29;-2.20;99.90
43627;DHT22;29217;52.586;13.442;2024-01-07T02:12:03;-2.30;99.90
43627;DHT22;29217;52.586;13.442;2024-01-07T02:14:28;-2.30;99.90
43627;DHT22;29217;52.586;13.442;2024-01-07T02:16:54;-2.30;99.90
43627;DHT22;29217;52.586;13.442;2024-01-07T02:19:20;-2.30;99.90
43627;DHT22;29217;52.586;13.442;2024-01-07T02:21:47;-2.30;99.90
43627;DHT22;29217;52.586;13.442;2024-01-07T02:24:18;-2.30;99.90
43627;DHT22;29217;52.586;13.442;2024-01-07T02:26:44;-2.40;99.90
43627;DHT22;29217;52.586;13.442;2024-01-07T02:29:10;-2.30;99.90
43627;DHT22;29217;52.586;13.442;2024-01-07T02:31:35;-2.40;99.90
43627;DHT22;29217;52.586;13.442;2024-01-07T02:34:01;-2.40;99.90
43627;DHT22;29217;52.586;13.442;2024-01-07T02:36:26;-2.50;99.90
43627;DHT22;29217;52.586;13.442;2024-01-07T02:38:52;-2.50;99.90
43627;DHT22;29217;52.586;13.442;2024-01-07T02:41:17;-2.50;99.90
43627;DHT22;29217;52.586;13.442;2024-01-07T02:43:43;-2.60;99.90
43627;DHT22;29217;52.586;13.442;2024-01-07T02:46:09;-2.60;99.90
43627;DHT22;29217;52.586;13.442;2024-01-07T02:48:34;-2.60;99.90
43627;DHT22;29217;52.586;13.442;2024-01-07T02:51:00;-2.60;99.90
43627;DHT22;29217;52.586;13.442;2024-01-07T02:53:26;-2.60;99.90
43627;DHT22;29217;52.586;13.442;2024-01-07T02:55:51;-2.70;99.90
43627;DHT22;29217;52.586;13.442;2024-01-07T02:58:17;-2.70;99.90
43627;DHT22;29217;52.586;13.442;2024-01-07T03:00:43;-2.70;99.90
43627;DHT22;29217;52.586;13.442;2024-01-07T03:03:08;-2.70;99.90
43627;DHT22;29217;52.586;13.442;2024-01-07T03:05:34;-2.70;99.90
43627;DHT22;29217;52.586;13.442;2024-01-07T03:07:59;-2.70;99.90
43627;DHT22;29217;52.586;13.442;2024-01-07T03:10:26;-2.60;99.90
43627;DHT22;29217;52.586;13.442;2024-01-07T03:12:51;-2.70;99.90
43627;DHT22;29217;52.586;13.442;2024-01-07T03:15:17;-2.70;99.90
43627;DHT22;29217;52.586;13.442;2024-01-07T03:17:42;-2.80;99.90
43627;DHT22;29217;52.586;13.442;2024-01-07T03:20:09;-2.80;99.90
43627;DHT22;29217;52.586;13.442;2024-01-07T03:22:35;-2.80;99.90
43627;DHT22;29217;52.586;13.442;2024-01-07T03:25:01;-2.70;99.90
43627;DHT22;29217;52.586;13.442;2024-01-07T03:27:26;-2.80;99.90
43627;DHT22;29217;52.586;13.442;2024-01-07T03:29:52;-2.80;99.90
43627;DHT22;29217;52.586;13.442;2024-01-07T03:32:17;-2.80;99.90
43627;DHT22;29217;52.586;13.442;2024-01-07T03:34:43;-2.80;99.90
43627;DHT22;29217;52.586;13.442;2024-01-07T03:37:09;-2.90;99.90
43627;DHT22;29217;52.586;13.442;2024-01-07T03:39:34;-2.90;99.90
43627;DHT22;29217;52.586;13.442;2024-01-07T03:42:00;-2.90;99.90
43627;DHT22;29217;52.586;13.442;2024-01-07T03:44:26;-2.90;99.90
43627;DHT22;29217;52.586;13.442;2024-01-07T03:46:51;-2.90;99.90
43627;DHT22;29217;52.586;13.442;2024-01-07T03:49:17;-2.90;99.90
43627;DHT22;29217;52.586;13.442;2024-01-07T03:51:45;-2.90;99.90
43627;DHT22;29217;52.586;13.442;2024-01-07T03:54:11;-2.90;99.90
43627;DHT22;29217;52.586;13.442;2024-01-07T03:56:36;-2.90;99.90
43627;DHT22;29217;52.586;13.442;2024-01-07T03:59:02;-2.90;99.90
43627;DHT22;29217;52.586;13.442;2024-01-07T04:01:28;-2.90;99.90
43627;DHT22;29217;52.586;13.442;2024-01-07T04:03:53;-2.90;99.90
43627;DHT22;29217;52.586;13.442;2024-01-07T04:06:19;-2.90;99.90
43627;DHT22;29217;52.586;13.442;2024-01-07T04:08:44;-2.90;99.90
43627;DHT22;29217;52.586;13.442;2024-01-07T04:11:10;-3.00;99.90
43627;DHT22;29217;52.586;13.442;2024-01-07T04:13:36;-2.90;99.90
43627;DHT22;29217;52.586;13.442;2024-01-07T04:16:02;-3.00;99.90
43627;DHT22;29217;52.586;13.442;2024-01-07T04:18:28;-2.90;99.90
43627;DHT22;29217;52.586;13.442;2024-01-07T04:20:53;-2.90;99.90
43627;DHT22;29217;52.586;13.442;2024-01-07T04:23:19;-2.90;99.90
43627;DHT22;29217;52.586;13.442;2024-01-07T04:25:44;-3.00;99.90
43627;DHT22;29217;52.586;13.442;2024-01-07T04:28:10;-2.90;99.90
43627;DHT22;29217;52.586;13.442;2024-01-07T04:30:36;-2.90;99.90
43627;DHT22;29217;52.586;13.442;2024-01-07T04:33:03;-2.80;99.90
43627;DHT22;29217;52.586;13.442;2024-01-07T04:35:29;-2.80;99.90
43627;DHT22;29217;52.586;13.442;2024-01-07T04:37:54;-2.80;99.90
43627;DHT22;29217;52.586;13.442;2024-01-07T04:40:20;-2.80;99.90
43627;DHT22;29217;52.586;13.442;2024-01-07T04:42:45;-2.80;99.90
43627;DHT22;29217;52.586;13.442;2024-01-07T04:45:11;-2.70;99.90
43627;DHT22;29217;52.586;13.442;2024-01-07T04:47:37;-2.80;99.90
43627;DHT22;29217;52.586;13.442;2024-01-07T04:50:03;-2.80;99.90
43627;DHT22;29217;52.586;13.442;2024-01-07T04:52:29;-2.80;99.90
43627;DHT22;29217;52.586;13.442;2024-01-07T04:54:55;-2.80;99.90
43627;DHT22;29217;52.586;13.442;2024-01-07T04:57:22;-2.80;99.90
43627;DHT22;29217;52.586;13.442;2024-01-07T04:59:49;-2.80;99.90
43627;DHT22;29217;52.586;13.442;2024-01-07T05:02:14;-2.70;99.90
43627;DHT22;29217;52.586;13.442;2024-01-07T05:04:41;-2.70;99.90
43627;DHT22;29217;52.586;13.442;2024-01-07T05:07:07;-2.60;99.90
43627;DHT22;29217;52.586;13.442;2024-01-07T05:09:32;-2.60;99.90
43627;DHT22;29217;52.586;13.442;2024-01-07T05:11:58;-2.60;99.90
43627;DHT22;29217;52.586;13.442;2024-01-07T05:14:24;-2.50;99.90
43627;DHT22;29217;52.586;13.442;2024-01-07T05:16:50;-2.60;99.90
43627;DHT22;29217;52.586;13.442;2024-01-07T05:19:15;-2.60;99.90
43627;DHT22;29217;52.586;13.442;2024-01-07T05:21:41;-2.50;99.90
43627;DHT22;29217;52.586;13.442;2024-01-07T05:24:06;-2.50;99.90
43627;DHT22;29217;52.586;13.442;2024-01-07T05:26:39;-2.50;99.90
43627;DHT22;29217;52.586;13.442;2024-01-07T05:29:05;-2.40;99.90
43627;DHT22;29217;52.586;13.442;2024-01-07T05:31:31;-2.40;99.90
43627;DHT22;29217;52.586;13.442;2024-01-07T05:33:56;-2.40;99.90
43627;DHT22;29217;52.586;13.442;2024-01-07T05:36:22;-2.40;99.90
43627;DHT22;29217;52.586;13.442;2024-01-07T05:38:48;-2.40;99.90
43627;DHT22;29217;52.586;13.442;2024-01-07T05:41:13;-2.30;99.90
43627;DHT22;29217;52.586;13.442;2024-01-07T05:43:39;-2.40;99.90
43627;DHT22;29217;52.586;13.442;2024-01-07T05:46:04;-2.30;99.90
43627;DHT22;29217;52.586;13.442;2024-01-07T05:48:41;-2.30;99.90
43627;DHT22;29217;52.586;13.442;2024-01-07T05:51:07;-2.30;99.90
43627;DHT22;29217;52.586;13.442;2024-01-07T05:53:34;-2.30;99.90
43627;DHT22;29217;52.586;13.442;2024-01-07T05:56:00;-2.30;99.90
43627;DHT22;29217;52.586;13.442;2024-01-07T05:58:25;-2.30;99.90
43627;DHT22;29217;52.586;13.442;2024-01-07T06:00:51;-2.30;99.90
43627;DHT22;29217;52.586;13.442;2024-01-07T06:03:17;-2.30;99.90
43627;DHT22;29217;52.586;13.442;2024-01-07T06:05:42;-2.30;99.90
43627;DHT22;29217;52.586;13.442;2024-01-07T06:08:08;-2.30;99.90
43627;DHT22;29217;52.586;13.442;2024-01-07T06:10:34;-2.30;99.90
43627;DHT22;29217;52.586;13.442;2024-01-07T06:12:59;-2.20;99.90
43627;DHT22;29217;52.586;13.442;2024-01-07T06:15:25;-2.20;99.90
43627;DHT22;29217;52.586;13.442;2024-01-07T06:17:50;-2.20;99.90
43627;DHT22;29217;52.586;13.442;2024-01-07T06:20:16;-2.20;99.90
43627;DHT22;29217;52.586;13.442;2024-01-07T06:22:41;-2.20;99.90
43627;DHT22;29217;52.586;13.442;2024-01-07T06:25:07;-2.20;99.90
43627;DHT22;29217;52.586;13.442;2024-01-07T06:27:33;-2.20;99.90
43627;DHT22;29217;52.586;13.442;2024-01-07T06:29:58;-2.30;99.90
43627;DHT22;29217;52.586;13.442;2024-01-07T06:32:24;-2.20;99.90
43627;DHT22;29217;52.586;13.442;2024-01-07T06:34:50;-2.20;99.90
43627;DHT22;29217;52.586;13.442;2024-01-07T06:37:17;-2.30;99.90
43627;DHT22;29217;52.586;13.442;2024-01-07T06:39:42;-2.20;99.90
43627;DHT22;29217;52.586;13.442;2024-01-07T06:42:08;-2.20;99.90
43627;DHT22;29217;52.586;13.442;2024-01-07T06:44:33;-2.20;99.90
43627;DHT22;29217;52.586;13.442;2024-01-07T06:46:59;-2.20;99.90
43627;DHT22;29217;52.586;13.442;2024-01-07T06:49:25;-2.20;99.90
43627;DHT22;29217;52.586;13.442;2024-01-07T06:51:50;-2.20;99.90
43627;DHT22;29217;52.586;13.442;2024-01-07T06:54:16;-2.10;99.90
43627;DHT22;29217;52.586;13.442;2024-01-07T06:56:41;-2.20;99.90
43627;DHT22;29217;52.586;13.442;2024-01-07T06:59:08;-2.10;99.90
43627;DHT22;29217;52.586;13.442;2024-01-07T07:01:33;-2.20;99.90
43627;DHT22;29217;52.586;13.442;2024-01-07T07:03:59;-2.10;99.90
43627;DHT22;29217;52.586;13.442;2024-01-07T07:06:25;-2.20;99.90
43627;DHT22;29217;52.586;13.442;2024-01-07T07:08:51;-2.20;99.90
43627;DHT22;29217;52.586;13.442;2024-01-07T07:11:16;-2.20;99.90
43627;DHT22;29217;52.586;13.442;2024-01-07T07:13:42;-2.20;99.90
43627;DHT22;29217;52.586;13.442;2024-01-07T07:16:07;-2.20;99.90
43627;DHT22;29217;52.586;13.442;2024-01-07T07:18:33;-2.20;99.90
43627;DHT22;29217;52.586;13.442;2024-01-07T07:20:59;-2.20;99.90
43627;DHT22;29217;52.586;13.442;2024-01-07T07:23:24;-2.20;99.90
43627;DHT22;29217;52.586;13.442;2024-01-07T07:25:50;-2.20;99.90
43627;DHT22;29217;52.586;13.442;2024-01-07T07:28:16;-2.20;99.90
43627;DHT22;29217;52.586;13.442;2024-01-07T07:30:43;-2.10;99.90
43627;DHT22;29217;52.586;13.442;2024-01-07T07:33:08;-2.10;99.90
43627;DHT22;29217;52.586;13.442;2024-01-07T07:35:34;-2.10;99.90
43627;DHT22;29217;52.586;13.442;2024-01-07T07:37:59;-2.10;99.90
43627;DHT22;29217;52.586;13.442;2024-01-07T07:40:25;-2.00;99.90
43627;DHT22;29217;52.586;13.442;2024-01-07T07:42:51;-2.00;99.90
43627;DHT22;29217;52.586;13.442;2024-01-07T07:45:16;-1.90;99.90
43627;DHT22;29217;52.586;13.442;2024-01-07T07:47:44;-1.90;99.90
43627;DHT22;29217;52.586;13.442;2024-01-07T07:50:10;-1.90;99.90
43627;DHT22;29217;52.586;13.442;2024-01-07T07:52:36;-1.90;99.90
43627;DHT22;29217;52.586;13.442;2024-01-07T07:55:02;-1.90;99.90
43627;DHT22;29217;52.586;13.442;2024-01-07T07:57:27;-2.00;99.90
43627;DHT22;29217;52.586;13.442;2024-01-07T07:59:54;-2.00;99.90
43627;DHT22;29217;52.586;13.442;2024-01-07T08:02:20;-2.00;99.90
43627;DHT22;29217;52.586;13.442;2024-01-07T08:04:46;-1.90;99.90
43627;DHT22;29217;52.586;13.442;2024-01-07T08:07:12;-1.90;99.90
43627;DHT22;29217;52.586;13.442;2024-01-07T08:09:38;-1.90;99.90
43627;DHT22;29217;52.586;13.442;2024-01-07T08:12:04;-1.90;99.90
43627;DHT22;29217;52.586;13.442;2024-01-07T08:14:31;-1.90;99.90
43627;DHT22;29217;52.586;13.442;2024-01-07T08:16:57;-1.90;99.90
43627;DHT22;29217;52.586;13.442;2024-01-07T08:19:22;-1.90;99.90
43627;DHT22;29217;52.586;13.442;2024-01-07T08:21:48;-1.90;99.90
43627;DHT22;29217;52.586;13.442;2024-01-07T08:24:13;-1.80;99.90
43627;DHT22;29217;52.586;13.442;2024-01-07T08:26:39;-1.80;99.90
43627;DHT22;29217;52.586;13.442;2024-01-07T08:29:05;-1.80;99.90
43627;DHT22;29217;52.586;13.442;2024-01-07T08:31:31;-1.80;99.90
43627;DHT22;29217;52.586;13.442;2024-01-07T08:33:56;-1.60;99.90
43627;DHT22;29217;52.586;13.442;2024-01-07T08:36:22;-1.80;99.90
43627;DHT22;29217;52.586;13.442;2024-01-07T08:38:48;-1.70;99.90
43627;DHT22;29217;52.586;13.442;2024-01-07T08:41:17;-1.60;99.90
43627;DHT22;29217;52.586;13.442;2024-01-07T08:43:43;-1.30;99.90
43627;DHT22;29217;52.586;13.442;2024-01-07T08:48:36;-1.50;99.90
43627;DHT22;29217;52.586;13.442;2024-01-07T08:51:01;-1.50;99.90
43627;DHT22;29217;52.586;13.442;2024-01-07T08:53:28;-1.50;99.90
43627;DHT22;29217;52.586;13.442;2024-01-07T08:55:54;-1.50;99.90
43627;DHT22;29217;52.586;13.442;2024-01-07T08:58:20;-1.40;99.90
43627;DHT22;29217;52.586;13.442;2024-01-07T09:00:45;-1.40;99.90
43627;DHT22;29217;52.586;13.442;2024-01-07T09:03:11;-1.30;99.90
43627;DHT22;29217;52.586;13.442;2024-01-07T09:05:37;-1.30;99.90
43627;DHT22;29217;52.586;13.442;2024-01-07T09:08:02;-1.30;99.90
43627;DHT22;29217;52.586;13.442;2024-01-07T09:10:28;-1.30;99.90
43627;DHT22;29217;52.586;13.442;2024-01-07T09:12:54;-1.40;99.90
43627;DHT22;29217;52.586;13.442;2024-01-07T09:15:20;-1.40;99.90
43627;DHT22;29217;52.586;13.442;2024-01-07T09:17:46;-1.40;99.90
43627;DHT22;29217;52.586;13.442;2024-01-07T09:20:12;-1.40;99.90
43627;DHT22;29217;52.586;13.442;2024-01-07T09:22:38;-1.40;99.90
43627;DHT22;29217;52.586;13.442;2024-01-07T09:25:04;-1.40;99.90
43627;DHT22;29217;52.586;13.442;2024-01-07T09:27:31;-1.40;99.90
43627;DHT22;29217;52.586;13.442;2024-01-07T09:29:56;-1.40;99.90
43627;DHT22;29217;52.586;13.442;2024-01-07T09:32:22;-1.40;99.90
43627;DHT22;29217;52.586;13.442;2024-01-07T09:34:48;-1.40;99.90
43627;DHT22;29217;52.586;13.442;2024-01-07T09:37:13;-1.30;99.90
43627;DHT22;29217;52.586;13.442;2024-01-07T09:39:40;-1.30;99.90
43627;DHT22;29217;52.586;13.442;2024-01-07T09:42:12;-1.40;99.90
43627;DHT22;29217;52.586;13.442;2024-01-07T09:44:39;-1.30;99.90
43627;DHT22;29217;52.586;13.442;2024-01-07T09:47:07;-1.30;99.90
43627;DHT22;29217;52.586;13.442;2024-01-07T09:49:35;-1.30;99.90
43627;DHT22;29217;52.586;13.442;2024-01-07T09:52:01;-1.30;99.90
43627;DHT22;29217;52.586;13.442;2024-01-07T09:54:29;-1.30;99.90
43627;DHT22;29217;52.586;13.442;2024-01-07T09:57:00;-1.30;99.90
43627;DHT22;29217;52.586;13.442;2024-01-07T09:59:28;-1.30;99.90
43627;DHT22;29217;52.586;13.442;2024-01-07T10:01:54;-1.30;99.90
43627;DHT22;29217;52.586;13.442;2024-01-07T10:04:20;-1.30;99.90
43627;DHT22;29217;52.586;13.442;2024-01-07T10:06:45;-1.20;99.90
43627;DHT22;29217;52.586;13.442;2024-01-07T10:09:12;-1.20;99.90
43627;DHT22;29217;52.586;13.442;2024-01-07T10:11:38;-1.20;99.90
43627;DHT22;29217;52.586;13.442;2024-01-07T10:14:04;-1.20;99.90
43627;DHT22;29217;52.586;13.442;2024-01-07T10:16:30;-1.30;99.90
43627;DHT22;29217;52.586;13.442;2024-01-07T10:18:57;-1.20;99.90
43627;DHT22;29217;52.586;13.442;2024-01-07T10:21:22;-1.20;99.90
43627;DHT22;29217;52.586;13.442;2024-01-07T10:23:48;-1.20;99.90
43627;DHT22;29217;52.586;13.442;2024-01-07T10:26:13;-1.20;99.90
43627;DHT22;29217;52.586;13.442;2024-01-07T10:28:39;-1.10;99.90
43627;DHT22;29217;52.586;13.442;2024-01-07T10:31:06;-1.10;99.90
43627;DHT22;29217;52.586;13.442;2024-01-07T10:33:32;-1.10;99.90
43627;DHT22;29217;52.586;13.442;2024-01-07T10:36:05;-1.00;99.90
43627;DHT22;29217;52.586;13.442;2024-01-07T10:38:32;-1.00;99.90
43627;DHT22;29217;52.586;13.442;2024-01-07T10:41:01;-1.00;99.90
43627;DHT22;29217;52.586;13.442;2024-01-07T10:43:30;-1.00;99.90
43627;DHT22;29217;52.586;13.442;2024-01-07T10:46:00;-0.90;99.90
43627;DHT22;29217;52.586;13.442;2024-01-07T10:48:30;-0.90;99.90
43627;DHT22;29217;52.586;13.442;2024-01-07T10:50:59;-0.90;99.90
43627;DHT22;29217;52.586;13.442;2024-01-07T10:53:28;-0.80;99.90
43627;DHT22;29217;52.586;13.442;2024-01-07T10:56:03;-0.80;99.90
43627;DHT22;29217;52.586;13.442;2024-01-07T10:58:33;-0.70;99.90
43627;DHT22;29217;52.586;13.442;2024-01-07T11:01:01;-0.70;99.90
43627;DHT22;29217;52.586;13.442;2024-01-07T11:08:47;-0.70;99.90
43627;DHT22;29217;52.586;13.442;2024-01-07T11:11:18;-0.70;99.90
43627;DHT22;29217;52.586;13.442;2024-01-07T11:13:46;-0.70;99.90
43627;DHT22;29217;52.586;13.442;2024-01-07T11:16:12;-0.70;99.90
43627;DHT22;29217;52.586;13.442;2024-01-07T11:18:46;-0.70;99.90
43627;DHT22;29217;52.586;13.442;2024-01-07T11:21:23;-0.70;99.90
43627;DHT22;29217;52.586;13.442;2024-01-07T11:23:50;-0.70;99.90
43627;DHT22;29217;52.586;13.442;2024-01-07T11:26:17;-0.70;99.90
43627;DHT22;29217;52.586;13.442;2024-01-07T11:28:54;-0.70;99.90
43627;DHT22;29217;52.586;13.442;2024-01-07T11:34:07;-0.60;99.90
43627;DHT22;29217;52.586;13.442;2024-01-07T11:36:35;-0.60;99.90
43627;DHT22;29217;52.586;13.442;2024-01-07T11:39:02;-0.50;99.90
43627;DHT22;29217;52.586;13.442;2024-01-07T11:41:33;-0.60;99.90
43627;DHT22;29217;52.586;13.442;2024-01-07T11:43:59;-0.60;99.90
43627;DHT22;29217;52.586;13.442;2024-01-07T11:46:26;-0.60;99.90
43627;DHT22;29217;52.586;13.442;2024-01-07T11:48:57;-0.60;99.90
43627;DHT22;29217;52.586;13.442;2024-01-07T11:51:29;-0.60;99.90
43627;DHT22;29217;52.586;13.442;2024-01-07T11:54:01;-0.50;99.90
43627;DHT22;29217;52.586;13.442;2024-01-07T11:56:27;-0.60;99.90
43627;DHT22;29217;52.586;13.442;2024-01-07T11:58:53;-0.60;99.90
43627;DHT22;29217;52.586;13.442;2024-01-07T12:01:19;-0.50;99.90
43627;DHT22;29217;52.586;13.442;2024-01-07T12:03:45;-0.50;99.90
43627;DHT22;29217;52.586;13.442;2024-01-07T12:06:11;-0.50;99.90
43627;DHT22;29217;52.586;13.442;2024-01-07T12:08:43;-0.50;99.90
43627;DHT22;29217;52.586;13.442;2024-01-07T12:11:11;-0.50;99.90
43627;DHT22;29217;52.586;13.442;2024-01-07T12:13:38;-0.40;99.90
43627;DHT22;29217;52.586;13.442;2024-01-07T12:16:05;-0.50;99.90
43627;DHT22;29217;52.586;13.442;2024-01-07T12:18:31;-0.50;99.90
43627;DHT22;29217;52.586;13.442;2024-01-07T12:20:58;-0.50;99.90
43627;DHT22;29217;52.586;13.442;2024-01-07T12:23:24;-0.50;99.90
43627;DHT22;29217;52.586;13.442;2024-01-07T12:25:54;-0.40;99.90
43627;DHT22;29217;52.586;13.442;2024-01-07T12:28:21;-0.40;99.90
43627;DHT22;29217;52.586;13.442;2024-01-07T12:30:49;-0.40;99.90
43627;DHT22;29217;52.586;13.442;2024-01-07T12:33:19;-0.40;99.90
43627;DHT22;29217;52.586;13.442;2024-01-07T12:35:46;-0.40;99.90
43627;DHT22;29217;52.586;13.442;2024-01-07T12:38:12;-0.30;99.90
43627;DHT22;29217;52.586;13.442;2024-01-07T12:40:38;-0.30;99.90
43627;DHT22;29217;52.586;13.442;2024-01-07T12:43:05;-0.30;99.90
43627;DHT22;29217;52.586;13.442;2024-01-07T12:45:32;-0.30;99.90
43627;DHT22;29217;52.586;13.442;2024-01-07T12:47:58;-0.30;99.90
43627;DHT22;29217;52.586;13.442;2024-01-07T12:50:27;-0.30;99.90
43627;DHT22;29217;52.586;13.442;2024-01-07T12:52:55;-0.20;99.90
43627;DHT22;29217;52.586;13.442;2024-01-07T12:55:21;-0.20;99.90
43627;DHT22;29217;52.586;13.442;2024-01-07T12:57:47;-0.20;99.90
43627;DHT22;29217;52.586;13.442;2024-01-07T13:00:13;-0.20;99.90
43627;DHT22;29217;52.586;13.442;2024-01-07T13:02:39;-0.20;99.90
43627;DHT22;29217;52.586;13.442;2024-01-07T13:05:05;-0.20;99.90
43627;DHT22;29217;52.586;13.442;2024-01-07T13:07:32;-0.20;99.90
43627;DHT22;29217;52.586;13.442;2024-01-07T13:09:58;-0.20;99.90
43627;DHT22;29217;52.586;13.442;2024-01-07T13:12:23;-0.20;99.90
43627;DHT22;29217;52.586;13.442;2024-01-07T13:14:49;-0.10;99.90
43627;DHT22;29217;52.586;13.442;2024-01-07T13:17:15;-0.10;99.90
43627;DHT22;29217;52.586;13.442;2024-01-07T13:19:40;-0.10;99.90
43627;DHT22;29217;52.586;13.442;2024-01-07T13:22:07;-0.10;99.90
43627;DHT22;29217;52.586;13.442;2024-01-07T13:24:32;-0.10;99.90
43627;DHT22;29217;52.586;13.442;2024-01-07T13:26:58;-0.20;99.90
43627;DHT22;29217;52.586;13.442;2024-01-07T13:29:24;-0.10;99.90
43627;DHT22;29217;52.586;13.442;2024-01-07T13:31:50;-0.20;99.90
43627;DHT22;29217;52.586;13.442;2024-01-07T13:34:16;-0.10;99.90
43627;DHT22;29217;52.586;13.442;2024-01-07T13:36:43;-0.10;99.90
43627;DHT22;29217;52.586;13.442;2024-01-07T13:39:09;-0.10;99.90
43627;DHT22;29217;52.586;13.442;2024-01-07T13:41:35;-0.10;99.90
43627;DHT22;29217;52.586;13.442;2024-01-07T13:44:01;-0.10;99.90
43627;DHT22;29217;52.586;13.442;2024-01-07T13:46:28;-0.10;99.90
43627;DHT22;29217;52.586;13.442;2024-01-07T13:48:54;-0.10;99.90
43627;DHT22;29217;52.586;13.442;2024-01-07T13:51:20;0.00;99.90
43627;DHT22;29217;52.586;13.442;2024-01-07T13:53:45;0.00;99.90
43627;DHT22;29217;52.586;13.442;2024-01-07T13:56:12;0.00;99.90
43627;DHT22;29217;52.586;13.442;2024-01-07T13:58:37;0.00;99.90
43627;DHT22;29217;52.586;13.442;2024-01-07T14:01:03;-0.10;99.90
43627;DHT22;29217;52.586;13.442;2024-01-07T14:03:30;-0.10;99.90
43627;DHT22;29217;52.586;13.442;2024-01-07T14:05:58;-0.10;99.90
43627;DHT22;29217;52.586;13.442;2024-01-07T14:08:23;0.00;99.90
43627;DHT22;29217;52.586;13.442;2024-01-07T14:10:49;-0.10;99.90
43627;DHT22;29217;52.586;13.442;2024-01-07T14:13:15;-0.10;99.90
43627;DHT22;29217;52.586;13.442;2024-01-07T14:15:40;-0.20;99.90
43627;DHT22;29217;52.586;13.442;2024-01-07T14:18:06;-0.10;99.90
43627;DHT22;29217;52.586;13.442;2024-01-07T14:20:32;-0.10;99.90
43627;DHT22;29217;52.586;13.442;2024-01-07T14:22:57;-0.10;99.90
43627;DHT22;29217;52.586;13.442;2024-01-07T14:25:24;-0.10;99.90
43627;DHT22;29217;52.586;13.442;2024-01-07T14:27:49;-0.10;99.90
43627;DHT22;29217;52.586;13.442;2024-01-07T14:30:15;-0.10;99.90
43627;DHT22;29217;52.586;13.442;2024-01-07T14:32:41;-0.10;99.90
43627;DHT22;29217;52.586;13.442;2024-01-07T14:35:07;-0.10;99.90
43627;DHT22;29217;52.586;13.442;2024-01-07T14:37:32;-0.10;99.90
43627;DHT22;29217;52.586;13.442;2024-01-07T14:39:58;-0.10;99.90
43627;DHT22;29217;52.586;13.442;2024-01-07T14:42:23;-0.20;99.90
43627;DHT22;29217;52.586;13.442;2024-01-07T14:44:49;-0.20;99.90
43627;DHT22;29217;52.586;13.442;2024-01-07T14:47:15;-0.20;99.90
43627;DHT22;29217;52.586;13.442;2024-01-07T14:49:41;-0.20;99.90
43627;DHT22;29217;52.586;13.442;2024-01-07T14:52:07;-0.20;99.90
43627;DHT22;29217;52.586;13.442;2024-01-07T14:54:32;-0.20;99.90
43627;DHT22;29217;52.586;13.442;2024-01-07T14:57:00;-0.10;99.90
43627;DHT22;29217;52.586;13.442;2024-01-07T14:59:26;-0.20;99.90
43627;DHT22;29217;52.586;13.442;2024-01-07T15:01:52;-0.20;99.90
43627;DHT22;29217;52.586;13.442;2024-01-07T15:04:19;-0.20;99.90
43627;DHT22;29217;52.586;13.442;2024-01-07T15:06:44;-0.20;99.90
43627;DHT22;29217;52.586;13.442;2024-01-07T15:09:12;-0.20;99.90
43627;DHT22;29217;52.586;13.442;2024-01-07T15:11:40;-0.20;99.90
43627;DHT22;29217;52.586;13.442;2024-01-07T15:14:08;-0.20;99.90
43627;DHT22;29217;52.586;13.442;2024-01-07T15:16:36;-0.30;99.90
43627;DHT22;29217;52.586;13.442;2024-01-07T15:19:02;-0.20;99.90